Time;durP1;ratioP1;P1;durP2;ratioP2;P2;SDS_P1;SDS_P2;PMS_P1;PMS_P2;Temp;Humidity;BMP_temperature;BMP_pressure;BME280_temperature;BME280_humidity;BME280_pressure;Samples;Min_cycle;Max_cycle;Signal;HPM_P1;HPM_P2
2022/04/04 00:01:41;;;;;;;10.45;5.00;;;;;;;;;;5058148;27;96076;-78
2022/04/04 00:04:08;;;;;;;7.93;4.90;;;;;;;;;;5071367;27;96192;-77
2022/04/04 00:06:34;;;;;;;7.97;4.90;;;;;;;;;;5070202;27;97021;-78
2022/04/04 00:09:01;;;;;;;10.02;5.40;;;;;;;;;;5075292;27;95191;-75
2022/04/04 00:11:27;;;;;;;8.93;5.40;;;;;;;;;;5066756;27;98722;-75
2022/04/04 00:13:56;;;;;;;9.15;5.13;;;;;;;;;;5051544;27;95386;-75
2022/04/04 00:16:23;;;;;;;10.35;5.72;;;;;;;;;;5065315;27;97839;-76
2022/04/04 00:18:49;;;;;;;15.82;6.88;;;;;;;;;;5055399;27;96821;-75
2022/04/04 00:21:16;;;;;;;12.38;6.35;;;;;;;;;;5071401;27;95522;-75
2022/04/04 00:23:42;;;;;;;10.65;6.60;;;;;;;;;;5072033;27;97523;-78
2022/04/04 00:26:09;;;;;;;12.38;6.45;;;;;;;;;;5063928;27;98074;-78
2022/04/04 00:28:36;;;;;;;13.38;7.15;;;;;;;;;;5061853;27;96408;-76
2022/04/04 00:31:02;;;;;;;11.60;6.63;;;;;;;;;;5073296;27;97564;-76
2022/04/04 00:33:29;;;;;;;15.48;6.93;;;;;;;;;;5071503;27;95140;-78
2022/04/04 00:35:55;;;;;;;13.13;7.15;;;;;;;;;;5067714;27;97328;-77
2022/04/04 00:38:22;;;;;;;12.82;7.45;;;;;;;;;;5050894;27;96224;-78
2022/04/04 00:40:49;;;;;;;11.00;6.93;;;;;;;;;;5068477;27;95694;-77
2022/04/04 00:43:15;;;;;;;11.43;7.15;;;;;;;;;;5071319;27;97378;-77
2022/04/04 00:45:46;;;;;;;13.20;7.60;;;;;;;;;;5069442;27;97928;-77
2022/04/04 00:48:12;;;;;;;12.60;7.32;;;;;;;;;;5066020;27;95692;-78
2022/04/04 00:50:38;;;;;;;11.48;7.22;;;;;;;;;;5066815;27;97404;-78
2022/04/04 00:53:08;;;;;;;14.25;7.47;;;;;;;;;;5073759;27;97873;-78
2022/04/04 00:55:35;;;;;;;14.35;7.15;;;;;;;;;;5071599;27;97505;-78
2022/04/04 00:58:01;;;;;;;12.27;7.40;;;;;;;;;;5057275;27;98123;-77
2022/04/04 01:00:28;;;;;;;13.18;8.13;;;;;;;;;;5060478;27;95465;-76
2022/04/04 01:02:54;;;;;;;13.10;8.50;;;;;;;;;;5071179;27;97209;-77
2022/04/04 01:05:21;;;;;;;14.30;7.85;;;;;;;;;;5068986;27;98148;-77
2022/04/04 01:07:47;;;;;;;13.30;7.97;;;;;;;;;;5059123;27;95715;-75
2022/04/04 01:10:14;;;;;;;13.02;8.20;;;;;;;;;;5059184;27;97246;-76
2022/04/04 01:12:50;;;;;;;19.58;8.70;;;;;;;;;;5074379;27;97944;-77
2022/04/04 01:15:17;;;;;;;13.05;7.70;;;;;;;;;;5070234;27;97262;-76
2022/04/04 01:17:45;;;;;;;15.60;8.18;;;;;;;;;;5069176;27;97631;-78
2022/04/04 01:20:12;;;;;;;17.52;8.45;;;;;;;;;;5062457;27;95443;-76
2022/04/04 01:22:38;;;;;;;13.05;8.50;;;;;;;;;;5050266;27;97133;-77
2022/04/04 01:25:05;;;;;;;15.15;8.90;;;;;;;;;;5050939;27;97913;-77
2022/04/04 01:27:32;;;;;;;14.68;8.02;;;;;;;;;;5059078;27;95355;-77
2022/04/04 01:30:01;;;;;;;17.25;8.52;;;;;;;;;;5068734;27;97203;-77
2022/04/04 01:32:27;;;;;;;14.45;7.90;;;;;;;;;;5070175;27;97378;-77
2022/04/04 01:34:54;;;;;;;15.20;8.52;;;;;;;;;;5073892;27;95350;-76
2022/04/04 01:37:20;;;;;;;14.55;8.40;;;;;;;;;;5062330;27;97342;-76
2022/04/04 01:39:47;;;;;;;12.85;8.38;;;;;;;;;;5051541;27;95729;-77
2022/04/04 01:42:13;;;;;;;15.98;8.98;;;;;;;;;;5049650;27;97468;-76
2022/04/04 01:44:39;;;;;;;15.07;9.32;;;;;;;;;;5069012;27;97038;-76
2022/04/04 01:47:06;;;;;;;14.18;8.90;;;;;;;;;;5070398;27;95420;-76
2022/04/04 01:49:32;;;;;;;12.25;8.13;;;;;;;;;;5069989;27;97126;-77
2022/04/04 01:52:02;;;;;;;14.55;8.98;;;;;;;;;;5051652;27;97424;-76
2022/04/04 01:54:31;;;;;;;15.73;9.02;;;;;;;;;;5049055;27;95953;-76
2022/04/04 01:56:57;;;;;;;14.27;9.07;;;;;;;;;;5052568;27;96859;-76
2022/04/04 01:59:24;;;;;;;15.50;9.35;;;;;;;;;;5050168;27;95757;-76
2022/04/04 02:01:51;;;;;;;13.70;8.80;;;;;;;;;;5059504;27;97382;-76
2022/04/04 02:04:18;;;;;;;15.52;9.60;;;;;;;;;;5059334;27;97906;-75
2022/04/04 02:06:44;;;;;;;19.30;10.02;;;;;;;;;;5057622;27;95303;-75
2022/04/04 02:09:11;;;;;;;15.55;9.27;;;;;;;;;;5049376;27;97456;-76
2022/04/04 02:11:37;;;;;;;16.77;10.00;;;;;;;;;;5064622;27;97417;-77
2022/04/04 02:14:04;;;;;;;15.70;9.45;;;;;;;;;;5055931;27;95313;-77
2022/04/04 02:16:30;;;;;;;20.40;9.05;;;;;;;;;;5049559;27;97516;-76
2022/04/04 02:18:57;;;;;;;15.05;10.30;;;;;;;;;;5052326;27;96985;-77
2022/04/04 02:21:24;;;;;;;16.65;9.88;;;;;;;;;;5062643;27;97231;-77
2022/04/04 02:23:51;;;;;;;14.30;9.55;;;;;;;;;;5057312;27;97807;-77
2022/04/04 02:26:18;;;;;;;19.08;10.25;;;;;;;;;;5048702;27;95654;-77
2022/04/04 02:28:44;;;;;;;13.98;9.93;;;;;;;;;;5049545;27;97392;-77
2022/04/04 02:31:11;;;;;;;16.45;9.70;;;;;;;;;;5060434;27;97604;-75
2022/04/04 02:33:37;;;;;;;17.42;10.18;;;;;;;;;;5057152;27;95440;-77
2022/04/04 02:36:04;;;;;;;13.88;9.25;;;;;;;;;;5048697;27;97262;-77
2022/04/04 02:38:30;;;;;;;21.20;9.32;;;;;;;;;;5048827;27;97865;-74
2022/04/04 02:40:57;;;;;;;19.23;10.73;;;;;;;;;;5058918;27;95633;-75
2022/04/04 02:43:24;;;;;;;19.25;10.18;;;;;;;;;;5058964;27;97861;-75
2022/04/04 02:45:51;;;;;;;16.70;9.68;;;;;;;;;;5048143;27;95512;-77
2022/04/04 02:48:17;;;;;;;15.15;10.35;;;;;;;;;;5049014;27;97502;-77
2022/04/04 02:50:44;;;;;;;18.60;10.88;;;;;;;;;;5052302;27;97628;-77
2022/04/04 02:53:11;;;;;;;16.45;10.50;;;;;;;;;;5068626;27;96389;-77
2022/04/04 02:58:23;;;;;;;16.75;10.10;;;;;;;;;;5068816;27;98087;-79
2022/04/04 03:00:49;;;;;;;16.98;10.18;;;;;;;;;;5064253;27;95657;-78
2022/04/04 03:03:16;;;;;;;15.10;9.77;;;;;;;;;;5060133;27;97422;-79
2022/04/04 03:05:43;;;;;;;16.17;10.10;;;;;;;;;;5069665;27;95547;-78
2022/04/04 03:08:10;;;;;;;15.70;9.77;;;;;;;;;;5072353;27;97472;-78
2022/04/04 03:10:36;;;;;;;17.67;10.13;;;;;;;;;;5073033;27;98332;-76
2022/04/04 03:13:05;;;;;;;13.20;9.07;;;;;;;;;;5064148;27;96844;-76
2022/04/04 03:15:34;;;;;;;15.20;9.43;;;;;;;;;;5064347;27;98040;-76
2022/04/04 03:18:03;;;;;;;14.10;8.70;;;;;;;;;;5059910;27;97438;-76
2022/04/04 03:20:31;;;;;;;14.38;8.95;;;;;;;;;;5059472;27;95619;-76
2022/04/04 03:22:58;;;;;;;13.95;8.40;;;;;;;;;;5076334;27;96763;-77
2022/04/04 03:25:30;;;;;;;13.80;9.07;;;;;;;;;;5059251;27;95584;-75
2022/04/04 03:27:57;;;;;;;12.02;8.40;;;;;;;;;;5052441;27;97364;-78
2022/04/04 03:30:25;;;;;;;14.20;8.10;;;;;;;;;;5058608;27;97738;-77
2022/04/04 03:32:53;;;;;;;12.60;8.75;;;;;;;;;;5073032;27;95567;-78
2022/04/04 03:35:19;;;;;;;11.93;8.10;;;;;;;;;;5072078;27;95691;-77
2022/04/04 03:37:47;;;;;;;13.07;7.53;;;;;;;;;;5072916;27;96584;-78
2022/04/04 03:40:14;;;;;;;13.15;8.25;;;;;;;;;;5067539;27;95433;-76
2022/04/04 03:42:41;;;;;;;12.50;8.25;;;;;;;;;;5052022;27;97155;-76
2022/04/04 03:45:14;;;;;;;14.35;8.55;;;;;;;;;;5067213;27;97644;-77
2022/04/04 03:47:42;;;;;;;11.27;8.00;;;;;;;;;;5060975;27;97032;-77
2022/04/04 03:50:09;;;;;;;15.30;7.72;;;;;;;;;;5053591;27;98493;-77
2022/04/04 03:52:38;;;;;;;17.33;8.38;;;;;;;;;;5072671;27;95457;-77
2022/04/04 03:55:08;;;;;;;;;;;;;;;;;;5072149;27;96228;-76
2022/04/04 03:57:35;;;;;;;11.77;7.82;;;;;;;;;;5070962;27;127144;-77
2022/04/04 04:00:02;;;;;;;14.52;8.40;;;;;;;;;;5071961;27;96140;-75
2022/04/04 04:02:35;;;;;;;15.32;8.18;;;;;;;;;;5072381;27;97265;-76
2022/04/04 04:05:10;;;;;;;15.68;8.63;;;;;;;;;;5070263;27;97439;-75
2022/04/04 04:07:36;;;;;;;14.90;8.50;;;;;;;;;;5075617;27;95642;-76
2022/04/04 04:10:03;;;;;;;15.30;8.07;;;;;;;;;;5071203;27;98126;-77
2022/04/04 04:12:31;;;;;;;11.35;8.13;;;;;;;;;;5071288;27;95621;-76
2022/04/04 04:14:57;;;;;;;15.43;8.13;;;;;;;;;;5062111;27;96969;-74
2022/04/04 04:17:24;;;;;;;14.85;8.57;;;;;;;;;;5064727;27;96819;-76
2022/04/04 04:22:38;;;;;;;16.50;8.88;;;;;;;;;;5052089;27;96256;-77
2022/04/04 04:25:05;;;;;;;13.15;7.95;;;;;;;;;;5070217;27;100841;-78
2022/04/04 04:27:31;;;;;;;17.90;8.70;;;;;;;;;;5071090;27;96001;-76
2022/04/04 04:29:57;;;;;;;13.68;8.23;;;;;;;;;;5075121;27;95797;-76
2022/04/04 04:32:26;;;;;;;13.95;8.55;;;;;;;;;;5071574;27;95897;-77
2022/04/04 04:34:53;;;;;;;16.17;9.25;;;;;;;;;;5071803;27;97126;-76
2022/04/04 04:37:21;;;;;;;15.95;9.70;;;;;;;;;;5063692;27;96539;-76
2022/04/04 04:39:50;;;;;;;14.15;9.32;;;;;;;;;;5051937;27;95509;-76
2022/04/04 04:42:17;;;;;;;14.60;9.90;;;;;;;;;;5051026;27;96598;-76
2022/04/04 04:44:44;;;;;;;14.18;9.40;;;;;;;;;;5050582;27;97363;-75
2022/04/04 04:47:16;;;;;;;13.77;9.35;;;;;;;;;;5050517;27;95217;-76
2022/04/04 04:49:48;;;;;;;13.13;9.98;;;;;;;;;;5061622;27;97519;-76
2022/04/04 04:52:15;;;;;;;15.05;9.85;;;;;;;;;;5054958;27;97828;-75
2022/04/04 04:54:42;;;;;;;20.58;10.02;;;;;;;;;;5051084;27;96844;-77
2022/04/04 04:57:09;;;;;;;16.58;9.77;;;;;;;;;;5050389;27;97469;-75
2022/04/04 04:59:35;;;;;;;17.58;10.02;;;;;;;;;;5050746;27;95921;-75
2022/04/04 05:02:06;;;;;;;15.55;9.85;;;;;;;;;;5050340;27;98346;-77
2022/04/04 18:04:02;;;;;;;83.93;44.47;;;;;;;;;;5058669;27;1326392;-79
2022/04/04 18:06:28;;;;;;;91.57;44.60;;;;;;;;;;5083829;27;97644;-80
2022/04/04 18:08:54;;;;;;;85.38;43.97;;;;;;;;;;5084493;27;95509;-78
2022/04/04 18:11:26;;;;;;;93.43;45.42;;;;;;;;;;5085237;27;97122;-80
2022/04/04 18:13:55;;;;;;;79.28;43.92;;;;;;;;;;5079653;27;97333;-80
2022/04/04 18:16:22;;;;;;;82.35;42.10;;;;;;;;;;5080722;27;95570;-78
2022/04/04 18:18:48;;;;;;;85.78;37.95;;;;;;;;;;5084598;27;95699;-79
2022/04/04 18:21:14;;;;;;;81.13;40.70;;;;;;;;;;5083995;27;97376;-78
2022/04/04 18:23:41;;;;;;;61.08;34.30;;;;;;;;;;5087246;27;96020;-78
2022/04/04 18:26:08;;;;;;;67.78;34.85;;;;;;;;;;5083842;27;97617;-80
2022/04/04 18:28:34;;;;;;;68.00;33.75;;;;;;;;;;5084735;27;95628;-79
2022/04/04 18:31:00;;;;;;;64.20;33.95;;;;;;;;;;5084361;27;96965;-79
2022/04/04 18:33:27;;;;;;;67.03;34.85;;;;;;;;;;5084091;27;97263;-78
2022/04/04 18:35:54;;;;;;;62.45;32.85;;;;;;;;;;5076498;27;95594;-79
2022/04/04 18:38:20;;;;;;;55.85;30.67;;;;;;;;;;5084494;27;97080;-79
2022/04/04 18:40:47;;;;;;;55.03;33.00;;;;;;;;;;5084016;27;97371;-78
2022/04/04 18:43:13;;;;;;;60.05;31.20;;;;;;;;;;5083538;27;95332;-79
2022/04/04 18:45:40;;;;;;;54.35;32.47;;;;;;;;;;5085391;27;96776;-79
2022/04/04 18:48:10;;;;;;;74.45;33.60;;;;;;;;;;5084367;27;96662;-78
2022/04/04 18:50:36;;;;;;;53.72;32.13;;;;;;;;;;5084327;27;96821;-78
2022/04/04 18:53:04;;;;;;;57.70;30.15;;;;;;;;;;5083574;27;97309;-79
2022/04/04 18:55:30;;;;;;;52.95;28.98;;;;;;;;;;5083943;27;95418;-79
2022/04/04 18:57:57;;;;;;;54.50;29.90;;;;;;;;;;5083804;27;96826;-80
2022/04/04 19:00:23;;;;;;;67.82;30.67;;;;;;;;;;5083295;27;97117;-81
2022/04/04 19:02:50;;;;;;;57.30;30.50;;;;;;;;;;5082886;27;95492;-79
2022/04/04 19:05:16;;;;;;;63.35;31.13;;;;;;;;;;5083120;27;96870;-80
2022/04/04 19:07:49;;;;;;;54.17;29.80;;;;;;;;;;5084615;27;97527;-80
2022/04/04 19:10:16;;;;;;;61.17;31.05;;;;;;;;;;5082915;27;97028;-80
2022/04/04 19:12:42;;;;;;;59.65;32.40;;;;;;;;;;5083690;27;97367;-80
2022/04/04 19:15:09;;;;;;;64.32;32.15;;;;;;;;;;5070135;27;95385;-79
2022/04/04 19:17:37;;;;;;;61.97;31.95;;;;;;;;;;5070277;27;96849;-78
2022/04/04 19:20:04;;;;;;;60.45;31.90;;;;;;;;;;5069206;27;97342;-78
2022/04/04 19:22:31;;;;;;;73.35;34.53;;;;;;;;;;5070772;27;96224;-78
2022/04/04 19:24:58;;;;;;;71.80;35.80;;;;;;;;;;5069379;27;96550;-78
2022/04/04 19:27:24;;;;;;;78.43;37.80;;;;;;;;;;5070323;27;97129;-81
2022/04/04 19:29:51;;;;;;;69.22;37.38;;;;;;;;;;5073122;27;96454;-77
2022/04/04 19:32:17;;;;;;;75.57;36.35;;;;;;;;;;5069377;27;97434;-77
2022/04/04 19:34:44;;;;;;;72.53;38.80;;;;;;;;;;5069700;27;95416;-77
2022/04/04 19:37:12;;;;;;;75.75;35.90;;;;;;;;;;5070247;27;99345;-79
2022/04/04 19:39:38;;;;;;;71.68;36.35;;;;;;;;;;5069203;27;97416;-79
2022/04/04 19:42:07;;;;;;;74.32;36.55;;;;;;;;;;5069901;27;95828;-78
2022/04/04 19:44:34;;;;;;;63.58;34.42;;;;;;;;;;5069544;27;96746;-78
2022/04/04 19:47:01;;;;;;;65.05;33.65;;;;;;;;;;5069297;27;97340;-79
2022/04/04 19:49:29;;;;;;;59.17;32.75;;;;;;;;;;5069936;27;95354;-81
2022/04/04 19:51:55;;;;;;;58.60;32.33;;;;;;;;;;5073319;27;96790;-81
2022/04/04 19:54:21;;;;;;;66.95;33.10;;;;;;;;;;5068691;27;95860;-81
2022/04/04 19:56:47;;;;;;;66.95;34.17;;;;;;;;;;5068450;27;96556;-81
2022/04/04 19:59:14;;;;;;;69.80;33.50;;;;;;;;;;5068386;27;97377;-81
2022/04/04 20:01:40;;;;;;;60.05;32.55;;;;;;;;;;5065379;27;95390;-80
2022/04/04 20:04:07;;;;;;;69.97;32.97;;;;;;;;;;5069648;27;96641;-80
2022/04/04 20:06:34;;;;;;;68.03;33.72;;;;;;;;;;5068582;27;97347;-80
2022/04/04 20:09:00;;;;;;;54.25;32.80;;;;;;;;;;5069888;27;95946;-78
2022/04/04 20:11:26;;;;;;;61.88;32.22;;;;;;;;;;5070214;27;96458;-78
2022/04/04 20:13:53;;;;;;;60.65;29.50;;;;;;;;;;5072281;27;95763;-81
2022/04/04 20:16:19;;;;;;;55.22;30.88;;;;;;;;;;5069491;27;96861;-82
2022/04/04 20:18:46;;;;;;;61.05;29.73;;;;;;;;;;5069728;27;97447;-79
2022/04/04 20:21:12;;;;;;;53.75;30.27;;;;;;;;;;5069060;27;96005;-80
2022/04/04 20:23:38;;;;;;;62.67;30.83;;;;;;;;;;5069853;27;96643;-79
2022/04/04 20:26:05;;;;;;;72.53;33.90;;;;;;;;;;5067837;27;97009;-80
2022/04/04 20:28:33;;;;;;;55.47;30.75;;;;;;;;;;5069608;27;95262;-80
2022/04/04 20:30:59;;;;;;;62.30;31.48;;;;;;;;;;5069810;27;95793;-80
2022/04/04 20:33:26;;;;;;;52.25;29.98;;;;;;;;;;5070747;27;97469;-78
2022/04/04 20:35:52;;;;;;;64.95;34.50;;;;;;;;;;5070845;27;96589;-80
2022/04/04 20:38:21;;;;;;;69.55;34.97;;;;;;;;;;5068399;27;97441;-76
2022/04/04 20:40:48;;;;;;;88.53;36.53;;;;;;;;;;5068768;27;96187;-78
2022/04/04 20:43:15;;;;;;;90.25;37.25;;;;;;;;;;5068787;27;96726;-80
2022/04/04 20:45:43;;;;;;;66.47;35.03;;;;;;;;;;5068154;27;97544;-80
2022/04/04 20:48:11;;;;;;;73.78;33.88;;;;;;;;;;5069262;27;95240;-78
2022/04/04 20:50:38;;;;;;;58.13;32.83;;;;;;;;;;5067816;27;97053;-82
2022/04/04 20:53:04;;;;;;;68.53;33.13;;;;;;;;;;5066276;27;97272;-79
2022/04/04 20:55:31;;;;;;;55.95;31.48;;;;;;;;;;5072531;27;96136;-78
2022/04/04 20:57:57;;;;;;;60.00;32.65;;;;;;;;;;5069161;27;97722;-81
2022/04/04 21:00:25;;;;;;;61.65;31.45;;;;;;;;;;5069847;27;95877;-78
2022/04/04 21:03:04;;;;;;;56.15;30.67;;;;;;;;;;5070149;27;95888;-79
2022/04/04 21:05:34;;;;;;;60.60;31.10;;;;;;;;;;5070440;27;96359;-76
2022/04/04 21:08:04;;;;;;;;;;;;;;;;;;5070210;27;95467;-79
2022/04/04 21:10:31;;;;;;;68.18;27.77;;;;;;;;;;5067817;27;125800;-78
2022/04/04 21:12:57;;;;;;;63.47;28.55;;;;;;;;;;5049577;27;97761;-81
2022/04/04 21:15:24;;;;;;;43.60;24.80;;;;;;;;;;5056248;27;95477;-78
2022/04/04 21:17:51;;;;;;;40.10;22.17;;;;;;;;;;5070608;27;96822;-78
2022/04/04 21:20:17;;;;;;;68.70;26.05;;;;;;;;;;5069323;27;95769;-78
2022/04/04 21:22:44;;;;;;;43.65;21.73;;;;;;;;;;5070097;27;97243;-78
2022/04/04 21:25:10;;;;;;;50.88;21.58;;;;;;;;;;5068841;27;97502;-78
2022/04/04 21:27:37;;;;;;;47.90;21.38;;;;;;;;;;5070090;27;95692;-77
2022/04/04 21:30:07;;;;;;;35.53;18.35;;;;;;;;;;5069537;27;96485;-77
2022/04/04 21:32:36;;;;;;;41.33;18.02;;;;;;;;;;5068985;27;97289;-78
2022/04/04 21:35:03;;;;;;;35.70;16.65;;;;;;;;;;5069457;27;95777;-78
2022/04/04 21:37:32;;;;;;;37.30;17.90;;;;;;;;;;5069691;27;96682;-76
2022/04/04 21:39:59;;;;;;;37.50;17.58;;;;;;;;;;5072107;27;96978;-79
2022/04/04 21:42:28;;;;;;;40.10;18.10;;;;;;;;;;5069945;27;95962;-77
2022/04/04 21:44:55;;;;;;;42.47;17.10;;;;;;;;;;5068980;27;97367;-76
2022/04/04 21:47:22;;;;;;;32.97;16.55;;;;;;;;;;5069429;27;95283;-78
2022/04/04 21:49:50;;;;;;;26.38;14.43;;;;;;;;;;5069846;27;96752;-77
2022/04/04 21:52:19;;;;;;;34.28;14.60;;;;;;;;;;5068526;27;98045;-77
2022/04/04 21:54:46;;;;;;;26.38;12.63;;;;;;;;;;5069270;27;95391;-79
2022/04/04 21:57:13;;;;;;;24.42;12.27;;;;;;;;;;5069521;27;96759;-77
2022/04/04 21:59:40;;;;;;;27.83;12.85;;;;;;;;;;5068536;27;97521;-77
2022/04/04 22:02:07;;;;;;;24.70;12.70;;;;;;;;;;5072052;27;95428;-78
2022/04/04 22:04:34;;;;;;;30.20;12.30;;;;;;;;;;5069077;27;97352;-80
2022/04/04 22:07:00;;;;;;;25.55;12.30;;;;;;;;;;5069112;27;95838;-77
2022/04/04 22:09:27;;;;;;;26.83;12.90;;;;;;;;;;5069579;27;96412;-77
2022/04/04 22:11:53;;;;;;;27.40;13.60;;;;;;;;;;5069215;27;97237;-79
2022/04/04 22:14:20;;;;;;;29.92;13.00;;;;;;;;;;5068204;27;95336;-81
2022/04/04 22:16:47;;;;;;;28.10;12.25;;;;;;;;;;5069073;27;95635;-77
2022/04/04 22:19:13;;;;;;;39.20;15.02;;;;;;;;;;5064683;27;97347;-79
2022/04/04 22:21:39;;;;;;;21.38;12.05;;;;;;;;;;5071653;27;95573;-78
2022/04/04 22:24:10;;;;;;;28.88;11.60;;;;;;;;;;5068619;27;97303;-80
2022/04/04 22:26:37;;;;;;;26.63;11.82;;;;;;;;;;5069229;27;95872;-81
2022/04/04 22:29:06;;;;;;;27.27;11.85;;;;;;;;;;5068912;27;96276;-80
2022/04/04 22:31:33;;;;;;;25.38;11.57;;;;;;;;;;5068111;27;95597;-79
2022/04/04 22:33:59;;;;;;;23.92;12.38;;;;;;;;;;5068422;27;95665;-79
2022/04/04 22:36:25;;;;;;;32.42;12.32;;;;;;;;;;5068860;27;96975;-79
2022/04/04 22:38:55;;;;;;;29.27;12.35;;;;;;;;;;5066903;27;97358;-79
2022/04/04 22:41:29;;;;;;;24.35;12.13;;;;;;;;;;5057125;27;95384;-80
2022/04/04 22:43:55;;;;;;;25.52;11.38;;;;;;;;;;5071118;27;96558;-81
2022/04/04 22:46:21;;;;;;;21.88;10.73;;;;;;;;;;5067786;27;95584;-80
2022/04/04 22:48:48;;;;;;;23.70;11.02;;;;;;;;;;5069057;27;96636;-79
2022/04/04 22:51:14;;;;;;;27.08;11.48;;;;;;;;;;5071798;27;97402;-79
2022/04/04 22:53:41;;;;;;;21.35;9.82;;;;;;;;;;5071338;27;95426;-79
2022/04/04 22:56:07;;;;;;;24.55;11.05;;;;;;;;;;5071351;27;96740;-79
2022/04/04 22:58:33;;;;;;;27.10;11.15;;;;;;;;;;5072275;27;97420;-80
2022/04/04 23:01:00;;;;;;;32.15;11.18;;;;;;;;;;5071997;27;95405;-80
2022/04/04 23:03:27;;;;;;;28.33;11.40;;;;;;;;;;5071423;27;96822;-80
2022/04/04 23:05:54;;;;;;;21.48;10.70;;;;;;;;;;5074958;27;97580;-79
2022/04/04 23:08:20;;;;;;;20.98;10.88;;;;;;;;;;5071516;27;95838;-80
2022/04/04 23:10:47;;;;;;;26.02;11.30;;;;;;;;;;5071578;27;97071;-80
2022/04/04 23:13:13;;;;;;;27.48;11.40;;;;;;;;;;5071931;27;96458;-80
2022/04/04 23:15:39;;;;;;;22.35;11.13;;;;;;;;;;5072132;27;96908;-81
2022/04/04 23:18:06;;;;;;;34.35;12.40;;;;;;;;;;5071170;27;97408;-80
2022/04/04 23:20:33;;;;;;;29.77;12.13;;;;;;;;;;5072178;27;96661;-79
2022/04/04 23:22:59;;;;;;;22.17;10.77;;;;;;;;;;5071062;27;96796;-80
2022/04/04 23:25:25;;;;;;;24.02;11.50;;;;;;;;;;5071262;27;97316;-80
2022/04/04 23:27:53;;;;;;;28.42;11.68;;;;;;;;;;5073754;27;95208;-80
2022/04/04 23:30:19;;;;;;;29.27;11.55;;;;;;;;;;5070685;27;97987;-79
2022/04/04 23:32:46;;;;;;;25.58;11.23;;;;;;;;;;5071980;27;95352;-80
2022/04/04 23:35:12;;;;;;;26.38;11.20;;;;;;;;;;5071453;27;96674;-79
2022/04/04 23:37:38;;;;;;;19.77;10.00;;;;;;;;;;5070994;27;97082;-79
2022/04/04 23:40:05;;;;;;;22.35;9.68;;;;;;;;;;5055845;27;95413;-78
2022/04/04 23:42:32;;;;;;;19.98;8.95;;;;;;;;;;5064562;27;98064;-80
2022/04/04 23:45:00;;;;;;;19.25;9.23;;;;;;;;;;5070914;27;97309;-79
2022/04/04 23:47:30;;;;;;;24.92;9.85;;;;;;;;;;5072042;27;95340;-81
2022/04/04 23:49:56;;;;;;;21.60;9.18;;;;;;;;;;5075021;27;96669;-79
2022/04/04 23:52:24;;;;;;;26.48;10.00;;;;;;;;;;5070879;27;95743;-78
2022/04/04 23:54:50;;;;;;;28.38;9.77;;;;;;;;;;5050906;27;97055;-80
2022/04/04 23:57:17;;;;;;;15.75;6.80;;;;;;;;;;5050499;27;97656;-78
2022/04/04 23:59:43;;;;;;;18.25;6.15;;;;;;;;;;5068867;27;95728;-79
